createdAt,value
2023-08-22T00:02:28.772Z,20.60
2023-08-22T00:05:17.293Z,20.50
2023-08-22T00:08:06.752Z,20.50
2023-08-22T00:10:58.312Z,20.60
2023-08-22T00:13:49.798Z,20.50
2023-08-22T00:16:38.162Z,20.50
2023-08-22T00:19:28.823Z,20.50
2023-08-22T00:22:18.607Z,20.50
2023-08-22T00:25:07.994Z,20.50
2023-08-22T00:27:56.343Z,20.60
2023-08-22T00:30:46.074Z,20.60
2023-08-22T00:33:34.447Z,20.60
2023-08-22T00:36:22.822Z,20.60
2023-08-22T00:39:11.200Z,20.60
2023-08-22T00:41:59.510Z,20.60
2023-08-22T00:44:48.034Z,20.60
2023-08-22T00:47:37.873Z,20.60
2023-08-22T00:50:26.804Z,20.70
2023-08-22T00:53:15.156Z,20.60
2023-08-22T00:56:03.861Z,20.60
2023-08-22T00:58:53.273Z,20.50
2023-08-22T01:01:41.679Z,20.50
2023-08-22T01:04:31.380Z,20.40
2023-08-22T01:07:25.921Z,20.30
2023-08-22T01:10:20.183Z,20.30
2023-08-22T01:13:13.501Z,20.30
2023-08-22T01:16:03.721Z,20.20
2023-08-22T01:18:52.889Z,20.20
2023-08-22T01:21:50.780Z,20.30
2023-08-22T01:24:39.127Z,20.30
2023-08-22T01:27:32.246Z,20.30
2023-08-22T01:30:28.111Z,20.40
2023-08-22T01:33:22.223Z,20.40
2023-08-22T01:36:12.351Z,20.40
2023-08-22T01:39:07.650Z,20.40
2023-08-22T01:41:57.421Z,20.30
2023-08-22T01:44:45.749Z,20.30
2023-08-22T01:47:36.713Z,20.40
2023-08-22T01:50:25.057Z,20.40
2023-08-22T01:53:13.406Z,20.40
2023-08-22T01:56:03.603Z,20.40
2023-08-22T01:58:52.764Z,20.40
2023-08-22T02:01:41.186Z,20.40
2023-08-22T02:04:29.640Z,20.40
2023-08-22T02:07:17.951Z,20.30
2023-08-22T02:10:07.234Z,20.30
2023-08-22T02:12:57.008Z,20.30
2023-08-22T02:15:45.372Z,20.30
2023-08-22T02:18:33.725Z,20.30
2023-08-22T02:21:26.318Z,20.30
2023-08-22T02:24:14.649Z,20.30
2023-08-22T02:27:04.989Z,20.40
2023-08-22T02:29:54.818Z,20.30
2023-08-22T02:32:43.153Z,20.30
2023-08-22T02:35:31.585Z,20.30
2023-08-22T02:38:20.643Z,20.20
2023-08-22T02:41:08.994Z,20.20
2023-08-22T02:43:57.318Z,20.20
2023-08-22T02:46:47.038Z,20.20
2023-08-22T02:49:35.374Z,20.30
2023-08-22T02:52:23.729Z,20.30
2023-08-22T02:55:12.055Z,20.30
2023-08-22T02:58:00.416Z,20.30
2023-08-22T03:00:49.136Z,20.30
2023-08-22T03:03:38.881Z,20.30
2023-08-22T03:06:27.303Z,20.30
2023-08-22T03:09:16.218Z,20.30
2023-08-22T03:12:04.851Z,20.30
2023-08-22T03:14:53.209Z,20.20
2023-08-22T03:17:42.037Z,20.10
2023-08-22T03:20:32.643Z,20.00
2023-08-22T03:23:20.961Z,19.90
2023-08-22T03:26:12.129Z,19.80
2023-08-22T03:29:00.536Z,19.80
2023-08-22T03:31:48.866Z,19.80
2023-08-22T03:34:37.285Z,19.80
2023-08-22T03:37:26.977Z,19.70
2023-08-22T03:40:15.336Z,19.70
2023-08-22T03:43:03.650Z,19.60
2023-08-22T03:45:52.052Z,19.60
2023-08-22T03:48:40.422Z,19.60
2023-08-22T03:51:28.763Z,19.50
2023-08-22T03:54:18.444Z,19.40
2023-08-22T03:57:06.898Z,19.30
2023-08-22T03:59:55.231Z,19.30
2023-08-22T04:02:43.642Z,19.40
2023-08-22T04:05:33.244Z,19.40
2023-08-22T04:08:21.600Z,19.30
2023-08-22T04:11:11.320Z,19.30
2023-08-22T04:13:59.690Z,19.30
2023-08-22T04:16:48.055Z,19.20
2023-08-22T04:19:36.598Z,19.20
2023-08-22T04:22:24.933Z,19.20
2023-08-22T04:25:13.904Z,19.10
2023-08-22T04:28:04.390Z,19.10
2023-08-22T04:30:53.321Z,19.10
2023-08-22T04:33:41.665Z,19.10
2023-08-22T04:36:30.005Z,19.00
2023-08-22T04:39:19.593Z,19.00
2023-08-22T04:42:08.071Z,19.10
2023-08-22T04:44:57.868Z,19.00
2023-08-22T04:47:46.322Z,19.10
2023-08-22T04:50:34.820Z,19.10
2023-08-22T04:53:23.133Z,19.20
2023-08-22T04:56:11.473Z,19.20
2023-08-22T04:58:59.888Z,19.20
2023-08-22T05:01:49.637Z,19.20
2023-08-22T05:04:38.062Z,19.30
2023-08-22T05:07:26.367Z,19.30
2023-08-22T05:10:14.707Z,19.40
2023-08-22T05:13:03.056Z,19.40
2023-08-22T05:15:51.446Z,19.40
2023-08-22T05:18:41.203Z,19.50
2023-08-22T05:21:29.581Z,19.50
2023-08-22T05:24:17.985Z,19.60
2023-08-22T05:27:06.321Z,19.60
2023-08-22T05:29:54.696Z,19.60
2023-08-22T05:32:43.203Z,19.70
2023-08-22T05:35:33.054Z,19.80
2023-08-22T05:38:21.341Z,19.90
2023-08-22T05:41:09.937Z,20.00
2023-08-22T05:43:58.243Z,20.00
2023-08-22T05:46:47.128Z,20.10
2023-08-22T05:49:35.472Z,20.10
2023-08-22T05:52:26.521Z,20.20
2023-08-22T05:55:14.887Z,20.20
2023-08-22T05:58:03.323Z,20.30
2023-08-22T06:00:51.803Z,20.40
2023-08-22T06:03:41.259Z,20.50
2023-08-22T06:06:29.577Z,20.60
2023-08-22T06:09:19.298Z,20.60
2023-08-22T06:12:10.544Z,20.70
2023-08-22T06:14:58.895Z,20.80
2023-08-22T06:17:48.988Z,20.80
2023-08-22T06:20:40.103Z,20.90
2023-08-22T06:23:28.470Z,21.00
2023-08-22T06:26:18.217Z,21.10
2023-08-22T06:29:06.590Z,21.10
2023-08-22T06:31:54.911Z,21.20
2023-08-22T06:34:43.312Z,21.30
2023-08-22T06:37:31.651Z,21.30
2023-08-22T06:40:19.994Z,21.40
2023-08-22T06:43:10.381Z,21.50
2023-08-22T06:45:59.283Z,21.60
2023-08-22T06:48:47.703Z,21.60
2023-08-22T06:51:36.090Z,21.60
2023-08-22T06:54:24.892Z,21.70
2023-08-22T06:57:13.288Z,21.70
2023-08-22T07:00:14.198Z,21.80
2023-08-22T07:03:02.736Z,21.80
2023-08-22T07:05:54.128Z,21.90
2023-08-22T07:08:42.610Z,21.90
2023-08-22T07:11:31.044Z,22.00
2023-08-22T07:14:19.391Z,22.00
2023-08-22T07:17:09.138Z,22.10
2023-08-22T07:19:57.519Z,22.10
2023-08-22T07:22:45.893Z,22.20
2023-08-22T07:25:34.270Z,22.30
2023-08-22T07:28:22.598Z,22.30
2023-08-22T07:31:10.998Z,22.40
2023-08-22T07:34:00.928Z,22.40
2023-08-22T07:36:49.397Z,22.40
2023-08-22T07:39:37.771Z,22.40
2023-08-22T07:42:26.076Z,22.50
2023-08-22T07:45:14.457Z,22.60
2023-08-22T07:48:02.832Z,22.60
2023-08-22T07:50:52.683Z,22.70
2023-08-22T07:53:41.045Z,22.70
2023-08-22T07:56:29.655Z,22.80
2023-08-22T07:59:18.182Z,22.90
2023-08-22T08:02:06.753Z,22.90
2023-08-22T08:04:55.079Z,23.00
2023-08-22T08:07:44.793Z,23.10
2023-08-22T08:10:35.461Z,23.10
2023-08-22T08:13:23.870Z,23.10
2023-08-22T08:16:12.280Z,23.20
2023-08-22T08:19:00.804Z,23.30
2023-08-22T08:21:49.240Z,23.30
2023-08-22T08:24:38.929Z,23.40
2023-08-22T08:27:27.240Z,23.40
2023-08-22T08:30:15.728Z,23.40
2023-08-22T08:33:05.106Z,23.40
2023-08-22T08:35:53.478Z,23.50
2023-08-22T08:38:41.834Z,23.60
2023-08-22T08:41:35.497Z,23.60
2023-08-22T08:44:25.322Z,23.70
2023-08-22T08:47:14.066Z,23.60
2023-08-22T08:50:07.362Z,23.60
2023-08-22T08:52:55.780Z,23.50
2023-08-22T08:55:45.063Z,23.50
2023-08-22T08:58:38.597Z,23.50
2023-08-22T09:01:29.217Z,23.60
2023-08-22T09:04:17.622Z,23.70
2023-08-22T09:07:06.253Z,23.80
2023-08-22T09:09:57.457Z,23.90
2023-08-22T09:12:45.879Z,23.90
2023-08-22T09:15:35.799Z,24.00
2023-08-22T09:18:32.355Z,24.00
2023-08-22T09:21:22.746Z,24.10
2023-08-22T09:24:13.888Z,24.10
2023-08-22T09:27:04.572Z,24.20
2023-08-22T09:29:52.943Z,24.40
2023-08-22T09:32:42.713Z,24.50
2023-08-22T09:35:31.831Z,24.50
2023-08-22T09:38:20.167Z,24.60
2023-08-22T09:41:09.829Z,24.70
2023-08-22T09:43:59.922Z,24.80
2023-08-22T09:46:53.082Z,24.80
2023-08-22T09:49:43.674Z,24.90
2023-08-22T09:52:33.835Z,25.00
2023-08-22T09:55:23.116Z,25.10
2023-08-22T09:58:12.349Z,25.20
2023-08-22T10:01:01.523Z,25.30
2023-08-22T10:03:50.421Z,25.40
2023-08-22T10:09:33.887Z,25.50
2023-08-22T10:12:24.390Z,25.60
2023-08-22T10:15:16.664Z,25.60
2023-08-22T10:18:05.705Z,25.70
2023-08-22T10:20:56.506Z,25.90
2023-08-22T10:23:59.851Z,25.90
2023-08-22T10:27:02.367Z,26.10
2023-08-22T10:30:21.976Z,26.20
2023-08-22T10:33:24.629Z,26.40
2023-08-22T10:36:19.969Z,26.50
2023-08-22T10:39:09.692Z,26.60
2023-08-22T10:41:58.611Z,26.70
2023-08-22T10:44:50.949Z,26.70
2023-08-22T10:47:39.644Z,26.70
2023-08-22T10:50:34.067Z,26.90
2023-08-22T10:53:25.079Z,27.00
2023-08-22T10:56:24.218Z,27.00
2023-08-22T10:59:15.806Z,27.10
2023-08-22T11:02:06.681Z,27.20
2023-08-22T11:04:57.658Z,27.20
2023-08-22T11:07:50.122Z,27.20
2023-08-22T11:10:40.465Z,27.20
2023-08-22T11:13:40.584Z,27.20
2023-08-22T11:16:29.069Z,27.20
2023-08-22T11:19:19.835Z,27.30
2023-08-22T11:22:08.363Z,27.50
2023-08-22T11:24:56.943Z,27.80
2023-08-22T11:27:45.260Z,28.00
2023-08-22T11:30:35.195Z,28.10
2023-08-22T11:33:24.834Z,28.00
2023-08-22T11:36:13.332Z,27.90
2023-08-22T11:39:01.704Z,27.90
2023-08-22T11:41:50.113Z,27.90
2023-08-22T11:44:54.217Z,28.00
2023-08-22T11:47:45.303Z,28.10
2023-08-22T11:50:33.851Z,28.10
2023-08-22T11:53:22.315Z,28.10
2023-08-22T11:56:13.275Z,28.20
2023-08-22T11:59:04.365Z,28.40
2023-08-22T12:01:52.797Z,28.60
2023-08-22T12:04:46.252Z,28.60
2023-08-22T12:07:44.384Z,28.60
2023-08-22T12:10:43.117Z,28.90
2023-08-22T12:13:31.554Z,29.10
2023-08-22T12:16:20.161Z,29.30
2023-08-22T12:19:12.762Z,29.30
2023-08-22T12:22:02.805Z,29.10
2023-08-22T12:24:51.206Z,29.10
2023-08-22T12:27:39.548Z,29.10
2023-08-22T12:30:27.959Z,29.10
2023-08-22T12:33:16.363Z,29.20
2023-08-22T12:36:04.951Z,29.40
2023-08-22T12:38:54.931Z,29.50
2023-08-22T12:41:43.228Z,29.60
2023-08-22T12:44:34.513Z,29.70
2023-08-22T12:47:22.970Z,29.90
2023-08-22T12:50:12.030Z,30.10
2023-08-22T12:53:00.341Z,30.30
2023-08-22T12:55:50.066Z,30.20
2023-08-22T12:58:38.407Z,30.10
2023-08-22T13:01:26.792Z,30.00
2023-08-22T13:04:15.617Z,29.90
2023-08-22T13:07:04.208Z,29.80
2023-08-22T13:09:52.613Z,29.50
2023-08-22T13:12:42.708Z,29.70
2023-08-22T13:15:36.151Z,29.60
2023-08-22T13:18:24.590Z,29.80
2023-08-22T13:21:13.027Z,29.90
2023-08-22T13:24:05.443Z,29.80
2023-08-22T13:26:53.848Z,29.60
2023-08-22T13:29:43.542Z,29.50
2023-08-22T13:32:31.915Z,29.30
2023-08-22T13:35:20.351Z,29.10
2023-08-22T13:38:08.745Z,29.10
2023-08-22T13:40:57.079Z,29.00
2023-08-22T13:43:45.439Z,29.10
2023-08-22T13:46:35.181Z,29.00
2023-08-22T13:49:23.545Z,28.90
2023-08-22T13:52:11.885Z,28.80
2023-08-22T13:55:00.290Z,28.70
2023-08-22T13:57:48.671Z,28.60
2023-08-22T14:00:37.031Z,28.70
2023-08-22T14:03:26.777Z,28.70
2023-08-22T14:06:15.163Z,28.70
2023-08-22T14:09:09.686Z,28.60
2023-08-22T14:12:05.063Z,28.50
2023-08-22T14:14:53.688Z,28.40
2023-08-22T14:17:42.021Z,28.30
2023-08-22T14:20:31.696Z,28.30
2023-08-22T14:23:20.381Z,28.20
2023-08-22T14:26:08.798Z,28.20
2023-08-22T14:28:57.366Z,28.10
2023-08-22T14:31:45.693Z,28.10
2023-08-22T14:34:34.001Z,28.10
2023-08-22T14:37:24.013Z,28.10
2023-08-22T14:40:12.961Z,28.20
2023-08-22T14:43:01.288Z,28.40
2023-08-22T14:45:50.031Z,28.60
2023-08-22T14:48:38.401Z,28.70
2023-08-22T14:51:26.736Z,28.70
2023-08-22T14:54:16.532Z,28.60
2023-08-22T14:57:05.031Z,28.60
2023-08-22T14:59:53.440Z,28.50
2023-08-22T15:02:42.626Z,28.50
2023-08-22T15:05:31.022Z,28.50
2023-08-22T15:08:19.348Z,28.50
2023-08-22T15:11:09.482Z,28.30
2023-08-22T15:13:58.374Z,28.20
2023-08-22T15:16:46.753Z,28.10
2023-08-22T15:19:35.078Z,27.90
2023-08-22T15:22:23.667Z,27.90
2023-08-22T15:25:12.463Z,27.80
2023-08-22T15:28:02.406Z,27.70
2023-08-22T15:30:50.872Z,27.70
2023-08-22T15:33:39.326Z,27.70
2023-08-22T15:36:28.114Z,27.70
2023-08-22T15:39:16.447Z,27.70
2023-08-22T15:42:04.983Z,27.70
2023-08-22T15:44:55.515Z,27.80
2023-08-22T15:47:44.217Z,28.10
2023-08-22T15:50:32.998Z,28.00
2023-08-22T15:53:21.337Z,28.10
2023-08-22T15:56:09.620Z,28.00
2023-08-22T15:58:57.957Z,27.80
2023-08-22T16:01:47.634Z,27.70
2023-08-22T16:04:36.637Z,27.50
2023-08-22T16:07:25.019Z,27.40
2023-08-22T16:10:13.494Z,27.30
2023-08-22T16:13:01.877Z,27.20
2023-08-22T16:15:50.514Z,27.10
2023-08-22T16:18:40.320Z,27.00
2023-08-22T16:21:28.672Z,27.00
2023-08-22T16:24:17.664Z,26.90
2023-08-22T16:27:06.080Z,26.80
2023-08-22T16:29:54.626Z,26.80
2023-08-22T16:32:42.990Z,26.70
2023-08-22T16:35:32.669Z,26.70
2023-08-22T16:38:21.864Z,26.70
2023-08-22T16:41:10.231Z,26.50
2023-08-22T16:43:58.606Z,26.50
2023-08-22T16:46:47.364Z,26.40
2023-08-22T16:49:35.776Z,26.30
2023-08-22T16:52:25.688Z,26.20
2023-08-22T16:55:13.996Z,26.20
2023-08-22T16:58:02.482Z,26.20
2023-08-22T17:00:50.957Z,26.20
2023-08-22T17:03:39.805Z,26.20
2023-08-22T17:06:28.219Z,26.20
2023-08-22T17:09:19.406Z,26.70
2023-08-22T17:12:08.154Z,26.80
2023-08-22T17:14:56.611Z,26.70
2023-08-22T17:17:45.256Z,26.60
2023-08-22T17:20:33.933Z,26.40
2023-08-22T17:23:22.517Z,26.30
2023-08-22T17:26:13.059Z,26.10
2023-08-22T17:29:01.480Z,26.00
2023-08-22T17:31:49.857Z,25.90
2023-08-22T17:34:38.286Z,25.90
2023-08-22T17:37:26.661Z,25.80
2023-08-22T17:40:16.778Z,25.90
2023-08-22T17:43:06.552Z,25.90
2023-08-22T17:45:54.874Z,25.80
2023-08-22T17:48:43.246Z,25.70
2023-08-22T17:51:31.644Z,25.70
2023-08-22T17:54:19.959Z,25.60
2023-08-22T17:57:09.450Z,25.50
2023-08-22T17:59:59.392Z,25.40
2023-08-22T18:02:48.299Z,25.30
2023-08-22T18:05:36.766Z,25.30
2023-08-22T18:08:26.249Z,25.20
2023-08-22T18:11:14.678Z,25.10
2023-08-22T18:14:03.057Z,25.00
2023-08-22T18:16:53.604Z,24.90
2023-08-22T18:19:42.196Z,24.80
2023-08-22T18:22:30.625Z,24.70
2023-08-22T18:25:19.241Z,24.60
2023-08-22T18:28:07.826Z,24.40
2023-08-22T18:30:58.218Z,24.30
2023-08-22T18:33:47.902Z,24.10
2023-08-22T18:36:36.216Z,24.10
2023-08-22T18:39:24.628Z,23.90
2023-08-22T18:42:13.384Z,23.80
2023-08-22T18:45:01.710Z,23.70
2023-08-22T18:47:50.355Z,23.70
2023-08-22T18:50:40.462Z,23.50
2023-08-22T18:53:29.125Z,23.50
2023-08-22T18:56:18.959Z,23.50
2023-08-22T18:59:08.243Z,23.40
2023-08-22T19:01:56.613Z,23.30
2023-08-22T19:04:44.925Z,23.20
2023-08-22T19:07:34.706Z,23.10
2023-08-22T19:10:25.318Z,23.10
2023-08-22T19:13:13.522Z,23.00
2023-08-22T19:16:01.841Z,22.90
2023-08-22T19:18:50.306Z,22.80
2023-08-22T19:21:38.640Z,22.80
2023-08-22T19:24:28.714Z,22.70
2023-08-22T19:27:17.030Z,22.70
2023-08-22T19:30:06.270Z,22.60
2023-08-22T19:33:11.375Z,22.50
2023-08-22T19:36:03.058Z,22.50
2023-08-22T19:38:51.495Z,22.50
2023-08-22T19:41:41.364Z,22.40
2023-08-22T19:44:29.713Z,22.30
2023-08-22T19:47:18.118Z,22.30
2023-08-22T19:50:07.998Z,22.20
2023-08-22T19:52:56.322Z,22.10
2023-08-22T19:55:45.322Z,22.00
2023-08-22T19:58:35.039Z,22.00
2023-08-22T20:01:24.264Z,21.90
2023-08-22T20:04:15.222Z,21.80
2023-08-22T20:07:03.638Z,21.80
2023-08-22T20:09:52.038Z,21.80
2023-08-22T20:12:40.524Z,21.80
2023-08-22T20:15:30.346Z,21.60
2023-08-22T20:18:19.230Z,21.50
2023-08-22T20:21:07.615Z,21.50
2023-08-22T20:23:56.201Z,21.50
2023-08-22T20:26:44.728Z,21.50
2023-08-22T20:29:33.492Z,21.50
2023-08-22T20:32:23.174Z,21.40
2023-08-22T20:35:11.620Z,21.40
2023-08-22T20:37:59.942Z,21.40
2023-08-22T20:40:48.267Z,21.30
2023-08-22T20:43:36.617Z,21.30
2023-08-22T20:46:24.998Z,21.30
2023-08-22T20:49:14.764Z,21.20
2023-08-22T20:52:03.701Z,21.20
2023-08-22T20:54:52.081Z,21.10
2023-08-22T20:57:40.452Z,21.10
2023-08-22T21:00:28.767Z,21.10
2023-08-22T21:03:17.138Z,21.00
2023-08-22T21:06:11.155Z,21.00
2023-08-22T21:08:59.518Z,20.90
2023-08-22T21:11:47.866Z,20.90
2023-08-22T21:14:36.240Z,20.80
2023-08-22T21:17:24.868Z,20.70
2023-08-22T21:20:13.777Z,20.60
2023-08-22T21:23:09.660Z,20.70
2023-08-22T21:25:59.161Z,20.60
2023-08-22T21:28:48.669Z,20.60
2023-08-22T21:31:37.018Z,20.50
2023-08-22T21:34:25.413Z,20.50
2023-08-22T21:37:13.732Z,20.40
2023-08-22T21:40:03.452Z,20.40
2023-08-22T21:42:51.887Z,20.30
2023-08-22T21:45:40.236Z,20.30
2023-08-22T21:48:28.585Z,20.30
2023-08-22T21:51:16.951Z,20.30
2023-08-22T21:54:05.385Z,20.30
2023-08-22T21:56:55.073Z,20.30
2023-08-22T21:59:43.370Z,20.30
2023-08-22T22:02:31.971Z,20.30
2023-08-22T22:05:20.445Z,20.30
2023-08-22T22:08:09.096Z,20.30
2023-08-22T22:10:57.481Z,20.30
2023-08-22T22:13:47.126Z,20.30
2023-08-22T22:16:44.640Z,20.20
2023-08-22T22:19:34.159Z,20.20
2023-08-22T22:22:22.615Z,20.10
2023-08-22T22:25:12.009Z,20.10
2023-08-22T22:28:00.382Z,20.10
2023-08-22T22:30:50.088Z,20.00
2023-08-22T22:33:38.673Z,20.00
2023-08-22T22:36:27.082Z,20.00
2023-08-22T22:39:15.397Z,20.00
2023-08-22T22:42:03.742Z,19.90
2023-08-22T22:44:52.977Z,19.90
2023-08-22T22:47:42.668Z,19.90
2023-08-22T22:50:31.232Z,19.90
2023-08-22T22:53:19.545Z,19.90
2023-08-22T22:56:08.102Z,19.90
2023-08-22T22:58:56.433Z,19.80
2023-08-22T23:01:44.781Z,19.70
2023-08-22T23:04:34.503Z,19.60
2023-08-22T23:07:22.907Z,19.50
2023-08-22T23:10:11.533Z,19.50
2023-08-22T23:13:00.308Z,19.40
2023-08-22T23:15:48.659Z,19.30
2023-08-22T23:18:36.975Z,19.30
2023-08-22T23:21:26.734Z,19.20
2023-08-22T23:24:15.038Z,19.20
2023-08-22T23:27:03.380Z,19.20
2023-08-22T23:29:52.006Z,19.20
2023-08-22T23:32:40.451Z,19.10
2023-08-22T23:35:28.794Z,19.10
2023-08-22T23:38:18.546Z,19.00
2023-08-22T23:41:06.914Z,18.90
2023-08-22T23:43:55.251Z,18.90
2023-08-22T23:46:43.615Z,18.80
2023-08-22T23:49:31.992Z,18.80
2023-08-22T23:52:20.319Z,18.90
2023-08-22T23:55:11.490Z,18.90
2023-08-22T23:58:01.056Z,18.80
